Time;durP1;ratioP1;P1;durP2;ratioP2;P2;SDS_P1;SDS_P2;PMS_P1;PMS_P2;Temp;Humidity;BMP_temperature;BMP_pressure;BME280_temperature;BME280_humidity;BME280_pressure;Samples;Min_cycle;Max_cycle;Signal;HPM_P1;HPM_P2
2022/11/02 00:02:19;;;;;;;1.30;0.93;;;26.40;63.20;;;;;;4976576;28;20449;-86
2022/11/02 00:04:46;;;;;;;1.43;1.13;;;26.40;63.00;;;;;;4976605;28;20997;-86
2022/11/02 00:07:13;;;;;;;2.13;1.00;;;26.40;63.10;;;;;;4976536;28;20943;-86
2022/11/02 00:09:40;;;;;;;1.63;1.00;;;26.30;62.90;;;;;;4976182;28;20446;-86
2022/11/02 00:12:07;;;;;;;0.90;0.73;;;26.30;63.00;;;;;;4976322;28;21037;-86
2022/11/02 00:14:34;;;;;;;1.30;1.10;;;26.30;63.00;;;;;;4976718;28;20449;-86
2022/11/02 00:17:01;;;;;;;1.40;1.10;;;26.30;62.70;;;;;;4976301;28;20476;-86
2022/11/02 00:19:30;;;;;;;1.10;0.90;;;26.30;63.00;;;;;;4976569;28;20440;-86
2022/11/02 00:21:57;;;;;;;1.10;1.00;;;26.30;63.00;;;;;;4976141;28;20443;-87
2022/11/02 00:24:24;;;;;;;1.90;1.10;;;26.30;62.90;;;;;;4976453;28;20451;-86
2022/11/02 00:26:52;;;;;;;0.90;0.80;;;26.30;62.90;;;;;;4976400;28;20940;-87
2022/11/02 00:29:20;;;;;;;0.90;0.80;;;26.30;62.90;;;;;;4977164;28;20445;-86
2022/11/02 00:31:47;;;;;;;1.93;1.03;;;26.30;62.80;;;;;;4976265;28;20493;-86
2022/11/02 00:34:14;;;;;;;1.33;1.00;;;26.30;63.00;;;;;;4976301;28;20450;-86
2022/11/02 00:36:42;;;;;;;1.03;0.83;;;26.30;63.10;;;;;;4976267;28;20535;-86
2022/11/02 00:39:09;;;;;;;0.90;0.80;;;26.50;63.20;;;;;;4976241;28;20492;-86
2022/11/02 00:41:35;;;;;;;0.90;0.80;;;26.30;63.00;;;;;;4976919;28;20511;-87
2022/11/02 00:44:02;;;;;;;1.20;1.00;;;26.30;63.00;;;;;;4976652;28;20456;-86
2022/11/02 00:46:29;;;;;;;1.20;0.93;;;26.30;63.00;;;;;;4976714;28;20449;-87
2022/11/02 00:48:56;;;;;;;1.53;1.20;;;26.30;63.00;;;;;;4976856;28;20848;-86
2022/11/02 00:51:23;;;;;;;1.07;0.97;;;26.30;62.80;;;;;;4975826;28;20848;-87
2022/11/02 00:53:51;;;;;;;1.00;0.70;;;26.30;62.80;;;;;;4975962;28;20459;-86
2022/11/02 00:56:18;;;;;;;0.80;0.70;;;26.30;62.90;;;;;;4975865;28;20445;-86
2022/11/02 00:58:44;;;;;;;1.00;0.90;;;26.30;63.00;;;;;;4975715;28;20447;-86
2022/11/02 01:01:11;;;;;;;1.20;0.80;;;26.30;63.00;;;;;;4975843;28;20451;-86
2022/11/02 01:03:38;;;;;;;2.13;1.23;;;26.30;63.00;;;;;;4975793;28;20539;-86
2022/11/02 01:06:09;;;;;;;1.20;1.00;;;26.50;63.10;;;;;;4975741;28;20821;-86
2022/11/02 01:08:36;;;;;;;1.10;0.80;;;26.30;62.90;;;;;;4975716;28;20448;-86
2022/11/02 01:11:12;;;;;;;1.30;0.93;;;26.30;63.00;;;;;;4975511;28;20497;-86
2022/11/02 01:13:39;;;;;;;1.40;1.10;;;26.30;63.00;;;;;;4975735;28;20531;-86
2022/11/02 01:16:06;;;;;;;1.40;0.80;;;26.30;62.80;;;;;;4975179;28;20979;-86
2022/11/02 01:18:34;;;;;;;1.10;0.90;;;26.30;62.80;;;;;;4975009;28;20476;-86
2022/11/02 01:21:01;;;;;;;1.00;0.90;;;26.30;62.80;;;;;;4974586;28;20444;-86
2022/11/02 01:23:28;;;;;;;1.20;1.00;;;26.30;62.90;;;;;;4975424;28;20448;-86
2022/11/02 01:29:18;;;;;;;1.23;0.93;;;26.30;62.90;;;;;;4975105;28;20950;-86
2022/11/02 01:31:45;;;;;;;1.10;0.90;;;26.20;63.00;;;;;;4976000;28;20822;-86
2022/11/02 01:34:12;;;;;;;1.50;0.70;;;26.20;62.90;;;;;;4974938;28;20544;-86
2022/11/02 01:36:39;;;;;;;1.30;0.90;;;26.20;63.00;;;;;;4975245;28;20492;-86
2022/11/02 01:39:06;;;;;;;1.20;1.10;;;26.20;62.90;;;;;;4975182;28;20539;-87
2022/11/02 01:41:33;;;;;;;1.07;0.97;;;26.20;63.00;;;;;;4975092;28;20445;-87
2022/11/02 01:44:03;;;;;;;0.97;0.80;;;26.20;63.00;;;;;;4974817;28;20935;-87
2022/11/02 01:46:37;;;;;;;1.30;1.00;;;26.30;63.00;;;;;;4975831;28;20449;-86
2022/11/02 01:49:09;;;;;;;1.10;0.90;;;26.30;63.00;;;;;;4975150;28;20437;-86
2022/11/02 01:51:39;;;;;;;1.07;0.97;;;26.20;62.90;;;;;;4974912;28;20480;-86
2022/11/02 01:54:10;;;;;;;1.00;0.90;;;26.20;62.90;;;;;;4975054;28;20447;-86
2022/11/02 01:56:40;;;;;;;0.97;0.87;;;26.20;62.90;;;;;;4974669;28;20443;-86
2022/11/02 01:59:13;;;;;;;0.90;0.80;;;26.20;62.80;;;;;;4975031;28;20527;-86
2022/11/02 02:01:41;;;;;;;2.57;1.30;;;26.20;62.90;;;;;;4974889;28;20440;-86
2022/11/02 02:04:09;;;;;;;0.90;0.80;;;26.20;62.80;;;;;;4974995;28;20453;-86
2022/11/02 02:06:37;;;;;;;1.13;0.90;;;26.20;62.90;;;;;;4974886;28;20539;-87
2022/11/02 02:09:05;;;;;;;1.20;1.10;;;26.20;62.90;;;;;;4974582;28;20969;-86
2022/11/02 02:11:34;;;;;;;1.30;0.80;;;26.20;62.90;;;;;;4974789;28;20578;-86
2022/11/02 02:14:04;;;;;;;1.00;0.80;;;26.20;62.80;;;;;;4974491;28;20452;-87
2022/11/02 02:17:03;;;;;;;1.00;0.90;;;26.20;62.80;;;;;;4974346;28;20483;-87
2022/11/02 02:19:40;;;;;;;1.00;0.90;;;26.20;62.80;;;;;;4974875;28;20443;-86
2022/11/02 02:22:24;;;;;;;1.27;1.10;;;26.20;62.80;;;;;;4974391;28;20440;-86
2022/11/02 02:24:58;;;;;;;1.33;1.00;;;26.20;62.90;;;;;;4974747;28;20443;-86
2022/11/02 02:30:55;;;;;;;1.20;1.10;;;26.20;62.80;;;;;;4974470;28;20432;-87
2022/11/02 02:33:28;;;;;;;3.57;0.90;;;26.20;63.00;;;;;;4977232;28;21009;-86
2022/11/02 02:35:58;;;;;;;0.90;0.77;;;26.20;63.00;;;;;;4979072;28;20445;-87
2022/11/02 02:38:29;;;;;;;1.50;0.93;;;26.20;63.00;;;;;;4978392;28;20451;-86
2022/11/02 02:41:00;;;;;;;1.23;0.97;;;26.20;62.80;;;;;;4978450;28;20555;-86
2022/11/02 02:43:33;;;;;;;0.90;0.80;;;26.20;62.80;;;;;;4978095;28;20439;-86
2022/11/02 02:46:08;;;;;;;1.73;0.80;;;26.20;62.80;;;;;;4978825;28;20892;-86
2022/11/02 02:48:38;;;;;;;1.10;1.00;;;26.20;62.90;;;;;;4977931;28;20527;-86
2022/11/02 02:51:08;;;;;;;1.10;1.00;;;26.20;62.80;;;;;;4978274;28;20429;-86
2022/11/02 02:53:41;;;;;;;1.00;0.77;;;26.20;62.90;;;;;;4977966;28;20507;-86
2022/11/02 02:56:10;;;;;;;1.00;0.90;;;26.20;62.90;;;;;;4978146;28;20495;-87
2022/11/02 02:58:42;;;;;;;1.60;1.00;;;26.20;62.80;;;;;;4977737;28;21002;-86
2022/11/02 03:01:12;;;;;;;1.00;0.90;;;26.20;62.80;;;;;;4978320;28;20975;-86
2022/11/02 03:03:41;;;;;;;1.73;0.90;;;26.20;62.80;;;;;;4978492;28;20440;-87
2022/11/02 03:06:15;;;;;;;1.20;0.90;;;26.30;63.00;;;;;;4978964;28;20800;-87
2022/11/02 03:08:47;;;;;;;0.90;0.73;;;26.20;62.90;;;;;;4977894;28;20800;-86
2022/11/02 03:11:16;;;;;;;1.10;1.00;;;26.20;62.80;;;;;;4977944;28;20444;-86
2022/11/02 03:14:03;;;;;;;1.17;0.80;;;26.20;62.90;;;;;;4977835;28;20455;-86
2022/11/02 03:16:43;;;;;;;1.00;0.80;;;26.20;63.00;;;;;;4977590;28;20444;-86
2022/11/02 03:19:20;;;;;;;0.80;0.70;;;26.20;62.90;;;;;;4977704;28;20773;-86
2022/11/02 03:21:55;;;;;;;1.50;1.00;;;26.20;62.90;;;;;;4977386;28;20436;-86
2022/11/02 03:24:27;;;;;;;1.43;0.70;;;26.20;62.90;;;;;;4978193;28;20440;-86
2022/11/02 03:27:06;;;;;;;0.77;0.67;;;26.20;63.00;;;;;;4978378;28;20440;-86
2022/11/02 03:29:39;;;;;;;1.20;0.80;;;26.10;62.80;;;;;;4978141;28;20454;-86
2022/11/02 03:32:12;;;;;;;1.57;0.90;;;26.10;62.90;;;;;;4977387;28;20487;-86
2022/11/02 03:34:41;;;;;;;1.03;0.93;;;26.20;62.90;;;;;;4977464;28;20434;-86
2022/11/02 03:37:12;;;;;;;1.47;0.87;;;26.10;62.90;;;;;;4977325;28;20449;-87
2022/11/02 03:39:43;;;;;;;1.20;0.90;;;26.10;62.80;;;;;;4977085;28;20438;-86
2022/11/02 03:42:14;;;;;;;1.43;1.00;;;26.30;63.10;;;;;;4977303;28;20449;-86
2022/11/02 03:44:42;;;;;;;1.00;0.80;;;26.10;62.80;;;;;;4976079;28;20432;-86
2022/11/02 03:47:13;;;;;;;0.90;0.80;;;26.10;62.80;;;;;;4977266;28;20539;-87
2022/11/02 03:49:42;;;;;;;1.93;1.00;;;26.10;63.60;;;;;;4977157;28;20445;-87
2022/11/02 03:52:13;;;;;;;0.93;0.80;;;26.10;62.80;;;;;;4976753;28;20484;-86
2022/11/02 03:54:44;;;;;;;1.10;1.00;;;26.10;62.80;;;;;;4977042;28;20441;-86
2022/11/02 03:57:18;;;;;;;1.10;0.83;;;26.10;62.80;;;;;;4977097;28;20441;-86
2022/11/02 03:59:45;;;;;;;1.83;0.87;;;26.10;62.80;;;;;;4977829;28;20524;-86
2022/11/02 04:02:15;;;;;;;0.97;0.77;;;26.20;63.00;;;;;;4976668;28;20943;-86
2022/11/02 04:04:50;;;;;;;1.00;0.90;;;26.10;62.80;;;;;;4976829;28;20444;-86
2022/11/02 04:07:21;;;;;;;1.70;1.10;;;26.10;62.70;;;;;;4976538;28;20560;-86
2022/11/02 04:09:48;;;;;;;1.30;1.03;;;26.10;62.80;;;;;;4976469;28;20942;-87
2022/11/02 04:15:00;;;;;;;1.10;1.00;;;26.10;62.80;;;;;;4946794;28;20429;-86
2022/11/02 04:20:12;;;;;;;1.40;1.10;;;26.10;62.80;;;;;;4976683;28;20418;-86
2022/11/02 04:25:31;;;;;;;1.40;0.83;;;26.10;62.80;;;;;;4941604;28;20437;-86
2022/11/02 04:28:07;;;;;;;1.00;0.80;;;26.10;62.70;;;;;;4976417;28;20441;-86
2022/11/02 04:30:34;;;;;;;1.10;0.80;;;26.10;62.50;;;;;;4976431;28;20432;-87
2022/11/02 04:35:46;;;;;;;1.20;0.97;;;26.10;62.80;;;;;;4976133;28;20899;-86
2022/11/02 04:43:40;;;;;;;1.13;1.03;;;26.00;62.80;;;;;;4974958;28;20472;-87
2022/11/02 04:46:07;;;;;;;1.10;1.00;;;26.00;63.10;;;;;;4975839;28;20936;-87
2022/11/02 04:48:35;;;;;;;0.87;0.77;;;26.00;62.60;;;;;;4976051;28;20543;-86
2022/11/02 04:51:02;;;;;;;1.70;1.00;;;26.10;62.70;;;;;;4976030;28;20819;-86
2022/11/02 04:53:29;;;;;;;1.17;1.03;;;26.20;62.80;;;;;;4975833;28;20844;-87
2022/11/02 04:55:56;;;;;;;1.77;0.83;;;26.00;62.70;;;;;;4975766;28;20468;-86
2022/11/02 04:58:22;;;;;;;1.30;0.97;;;26.10;62.80;;;;;;4975872;28;20452;-86
2022/11/02 05:00:49;;;;;;;1.10;0.80;;;26.10;62.80;;;;;;4975473;28;20483;-87
2022/11/02 05:03:16;;;;;;;1.00;0.90;;;26.00;62.60;;;;;;4975773;28;20454;-87
2022/11/02 05:05:44;;;;;;;1.10;1.00;;;26.00;62.60;;;;;;4975411;28;20547;-86
2022/11/02 05:08:11;;;;;;;0.83;0.73;;;26.00;62.50;;;;;;4976775;28;20448;-86
2022/11/02 05:10:37;;;;;;;0.80;0.73;;;26.00;62.50;;;;;;4975533;28;20479;-86
2022/11/02 05:13:04;;;;;;;1.17;0.80;;;26.00;62.50;;;;;;4975437;28;20492;-86
2022/11/02 05:15:31;;;;;;;1.00;0.80;;;26.00;62.60;;;;;;4975556;28;20448;-87
2022/11/02 05:17:58;;;;;;;1.27;0.83;;;26.00;62.40;;;;;;4975137;28;20626;-87
2022/11/02 05:20:25;;;;;;;1.40;0.90;;;26.00;62.30;;;;;;4975470;28;20924;-87
2022/11/02 05:22:53;;;;;;;1.37;0.70;;;26.00;62.50;;;;;;4975402;28;20595;-87
2022/11/02 05:25:20;;;;;;;1.03;0.83;;;26.00;62.50;;;;;;4975399;28;20917;-86
2022/11/02 05:27:46;;;;;;;0.90;0.80;;;26.00;62.50;;;;;;4975382;28;20543;-86
2022/11/02 05:30:13;;;;;;;0.93;0.80;;;26.00;62.50;;;;;;4975045;28;20968;-86
2022/11/02 05:32:40;;;;;;;1.00;0.80;;;26.00;62.60;;;;;;4975204;28;20491;-87
2022/11/02 05:35:08;;;;;;;1.00;0.80;;;26.00;62.50;;;;;;4975196;28;20451;-86
2022/11/02 05:37:35;;;;;;;0.80;0.80;;;26.00;62.60;;;;;;4974495;28;20454;-86
2022/11/02 05:40:03;;;;;;;0.93;0.83;;;26.00;62.50;;;;;;4975221;28;20452;-87
2022/11/02 05:42:30;;;;;;;1.30;1.00;;;26.00;62.50;;;;;;4975128;28;20797;-87
2022/11/02 05:44:58;;;;;;;1.20;1.00;;;26.00;62.60;;;;;;4975170;28;20452;-86
2022/11/02 05:47:24;;;;;;;1.00;0.90;;;26.00;62.60;;;;;;4975537;28;20457;-86
2022/11/02 05:49:51;;;;;;;1.30;0.80;;;26.00;62.60;;;;;;4974834;28;20962;-86
2022/11/02 05:52:18;;;;;;;1.63;0.80;;;26.10;62.60;;;;;;4975004;28;20535;-87
2022/11/02 05:54:45;;;;;;;0.90;0.80;;;26.00;62.50;;;;;;4975028;28;20496;-87
2022/11/02 05:57:13;;;;;;;1.00;0.77;;;26.00;62.50;;;;;;4974871;28;20540;-86
2022/11/02 05:59:40;;;;;;;1.27;0.90;;;26.00;62.60;;;;;;4974909;28;20445;-87
2022/11/02 06:02:06;;;;;;;1.00;0.90;;;26.00;62.40;;;;;;4974908;28;20452;-86
2022/11/02 06:04:33;;;;;;;1.57;1.17;;;26.00;62.50;;;;;;4974899;28;20796;-87
2022/11/02 06:07:00;;;;;;;1.20;0.80;;;26.00;62.50;;;;;;4974357;28;20509;-87
2022/11/02 06:09:27;;;;;;;1.40;0.90;;;26.10;62.50;;;;;;4974883;28;20455;-87
2022/11/02 06:11:55;;;;;;;1.17;0.83;;;26.00;62.40;;;;;;4974563;28;20455;-86
2022/11/02 06:14:23;;;;;;;1.43;0.80;;;26.00;62.40;;;;;;4974840;28;20626;-86
2022/11/02 06:16:50;;;;;;;1.53;1.00;;;26.00;62.70;;;;;;4974280;28;20480;-86
2022/11/02 06:19:17;;;;;;;1.10;0.90;;;26.00;62.30;;;;;;4974743;28;20445;-86
2022/11/02 06:21:44;;;;;;;1.20;0.90;;;26.00;62.40;;;;;;4974765;28;20535;-86
2022/11/02 06:24:11;;;;;;;1.10;0.70;;;26.00;62.50;;;;;;4974765;28;20451;-85
2022/11/02 06:26:38;;;;;;;0.80;0.70;;;26.00;62.50;;;;;;4974423;28;20491;-87
2022/11/02 06:29:04;;;;;;;1.20;0.90;;;26.00;62.50;;;;;;4974756;28;20453;-86
2022/11/02 06:31:33;;;;;;;1.20;0.83;;;26.00;62.50;;;;;;4974694;28;20459;-85
2022/11/02 06:33:59;;;;;;;1.00;0.90;;;26.20;62.70;;;;;;4974256;28;21044;-86
2022/11/02 06:36:26;;;;;;;1.00;0.80;;;26.00;62.60;;;;;;4974612;28;20548;-86
2022/11/02 06:38:53;;;;;;;1.83;0.70;;;26.00;62.60;;;;;;4974572;28;20444;-90
2022/11/02 06:41:20;;;;;;;0.97;0.80;;;26.00;62.50;;;;;;4974241;28;20453;-88
2022/11/02 06:43:47;;;;;;;1.93;0.80;;;26.00;62.20;;;;;;4974558;28;20445;-87
2022/11/02 06:46:13;;;;;;;1.47;1.00;;;26.00;62.00;;;;;;4974513;28;20456;-88
2022/11/02 06:48:42;;;;;;;1.63;1.00;;;26.00;62.20;;;;;;4974206;28;20507;-87
2022/11/02 06:51:08;;;;;;;1.73;0.80;;;26.00;62.10;;;;;;4974182;28;20528;-88
2022/11/02 06:53:35;;;;;;;0.90;0.77;;;25.90;62.00;;;;;;4973996;28;21005;-88
2022/11/02 06:59:24;;;;;;;1.00;0.80;;;26.00;62.10;;;;;;4974320;28;20407;-89
2022/11/02 07:01:52;;;;;;;1.00;0.90;;;25.90;62.30;;;;;;4974348;28;20452;-85
2022/11/02 07:04:21;;;;;;;0.80;0.70;;;25.90;62.30;;;;;;4974389;28;20452;-88
2022/11/02 07:06:48;;;;;;;0.90;0.80;;;25.90;62.40;;;;;;4974012;28;20448;-88
2022/11/02 07:09:15;;;;;;;1.13;1.00;;;25.90;62.10;;;;;;4974329;28;20819;-87
2022/11/02 07:11:41;;;;;;;1.30;1.00;;;25.90;61.70;;;;;;4974318;28;20451;-87
2022/11/02 07:14:08;;;;;;;1.10;0.83;;;25.90;62.10;;;;;;4974130;28;20495;-88
2022/11/02 07:16:35;;;;;;;1.97;0.93;;;25.90;62.50;;;;;;4974106;28;20481;-87
2022/11/02 07:19:03;;;;;;;1.50;0.80;;;25.90;62.60;;;;;;4975030;28;20448;-87
2022/11/02 07:21:31;;;;;;;1.20;1.00;;;25.90;62.60;;;;;;4977681;28;20443;-87
2022/11/02 07:23:57;;;;;;;0.90;0.80;;;26.00;62.70;;;;;;4978101;28;20472;-87
2022/11/02 07:26:25;;;;;;;2.10;1.03;;;25.90;62.70;;;;;;4977722;28;20451;-87
2022/11/02 07:28:54;;;;;;;1.73;0.97;;;26.00;62.90;;;;;;4977336;28;20461;-90
2022/11/02 07:31:21;;;;;;;3.43;1.60;;;25.90;63.10;;;;;;4977646;28;20452;-90
2022/11/02 07:33:48;;;;;;;3.73;1.10;;;25.90;63.10;;;;;;4977379;28;20635;-85
2022/11/02 07:36:15;;;;;;;2.83;1.10;;;25.90;63.10;;;;;;4977461;28;20453;-86
2022/11/02 07:38:43;;;;;;;3.43;1.00;;;26.20;63.40;;;;;;4977450;28;20458;-86
2022/11/02 07:41:10;;;;;;;1.07;0.97;;;25.90;63.10;;;;;;4978023;28;20864;-87
2022/11/02 07:43:37;;;;;;;3.03;1.57;;;25.90;63.30;;;;;;4977374;28;20497;-86
2022/11/02 07:46:04;;;;;;;1.40;1.00;;;26.00;63.60;;;;;;4977315;28;20448;-86
2022/11/02 07:48:32;;;;;;;2.90;1.30;;;26.00;63.70;;;;;;4977151;28;20458;-86
2022/11/02 07:50:59;;;;;;;4.07;1.33;;;25.90;62.80;;;;;;4977190;28;20455;-86
2022/11/02 07:53:26;;;;;;;3.00;0.90;;;25.90;62.40;;;;;;4977046;28;20480;-85
2022/11/02 07:55:54;;;;;;;3.27;1.33;;;26.00;63.10;;;;;;4976725;28;20459;-86
2022/11/02 07:58:21;;;;;;;4.67;1.27;;;26.00;62.40;;;;;;4977185;28;20451;-87
2022/11/02 08:00:47;;;;;;;5.23;1.00;;;26.00;62.40;;;;;;4977078;28;20446;-85
2022/11/02 08:03:14;;;;;;;4.17;1.33;;;25.90;62.40;;;;;;4977801;28;20456;-86
2022/11/02 08:05:42;;;;;;;1.20;1.10;;;26.00;62.90;;;;;;4976867;28;20449;-86
2022/11/02 08:08:12;;;;;;;2.77;1.40;;;26.00;63.10;;;;;;4977020;28;20445;-86
2022/11/02 08:10:38;;;;;;;1.33;0.90;;;26.00;63.20;;;;;;4976796;28;20840;-85
2022/11/02 08:13:07;;;;;;;1.67;0.80;;;26.00;63.30;;;;;;4976844;28;20490;-86
2022/11/02 08:15:34;;;;;;;1.90;1.00;;;26.00;63.40;;;;;;4976975;28;20475;-85
2022/11/02 08:18:07;;;;;;;4.10;1.40;;;26.00;63.30;;;;;;4977082;28;20488;-86
2022/11/02 08:20:35;;;;;;;2.93;1.67;;;26.10;62.60;;;;;;4958912;28;20507;-85
2022/11/02 08:23:03;;;;;;;1.93;1.13;;;26.00;62.40;;;;;;4976333;28;20453;-86
2022/11/02 08:25:30;;;;;;;3.23;1.03;;;26.10;62.60;;;;;;4976232;28;20453;-85
2022/11/02 08:27:58;;;;;;;2.40;1.07;;;26.10;62.30;;;;;;4975834;28;21000;-86
2022/11/02 08:30:27;;;;;;;2.97;1.60;;;26.20;62.10;;;;;;4975656;28;20475;-85
2022/11/02 08:32:54;;;;;;;4.17;1.37;;;26.10;62.00;;;;;;4975935;28;20453;-85
2022/11/02 08:35:21;;;;;;;4.50;1.57;;;26.00;62.20;;;;;;4976363;28;20453;-85
2022/11/02 08:37:53;;;;;;;1.40;1.10;;;26.30;62.30;;;;;;4976311;28;20962;-85
2022/11/02 08:40:20;;;;;;;1.77;0.90;;;26.10;61.90;;;;;;4976274;28;20434;-85
2022/11/02 08:42:47;;;;;;;5.90;1.20;;;26.20;61.90;;;;;;4976181;28;20821;-85
2022/11/02 08:45:14;;;;;;;2.03;1.47;;;26.20;61.90;;;;;;4976090;28;20455;-84
2022/11/02 08:47:43;;;;;;;4.77;1.40;;;26.20;62.20;;;;;;4975787;28;20452;-83
2022/11/02 08:50:10;;;;;;;8.87;1.40;;;26.20;62.00;;;;;;4976018;28;20444;-86
2022/11/02 08:52:37;;;;;;;9.43;1.53;;;26.20;62.50;;;;;;4976148;28;20467;-85
2022/11/02 08:55:05;;;;;;;4.37;1.20;;;26.20;61.30;;;;;;4975621;28;20484;-86
2022/11/02 08:57:32;;;;;;;3.43;1.27;;;26.20;61.10;;;;;;4975890;28;20447;-86
2022/11/02 08:59:59;;;;;;;11.07;1.57;;;26.20;60.90;;;;;;4975916;28;20452;-85
2022/11/02 09:02:25;;;;;;;3.37;1.43;;;26.20;60.70;;;;;;4975862;28;20507;-83
2022/11/02 09:04:54;;;;;;;3.93;1.37;;;26.10;60.20;;;;;;4975712;28;20445;-84
2022/11/02 09:07:20;;;;;;;1.23;1.10;;;26.20;60.40;;;;;;4975698;28;20447;-85
2022/11/02 09:09:47;;;;;;;2.00;1.40;;;26.10;60.30;;;;;;4975272;28;20448;-85
2022/11/02 09:12:14;;;;;;;5.77;1.10;;;26.30;60.50;;;;;;4975092;28;20460;-85
2022/11/02 09:14:40;;;;;;;9.00;1.77;;;26.50;60.30;;;;;;4975043;28;20839;-84
2022/11/02 09:17:07;;;;;;;2.20;1.30;;;26.60;60.10;;;;;;4974786;28;20483;-85
2022/11/02 09:19:34;;;;;;;2.40;1.30;;;26.60;60.40;;;;;;4975187;28;20476;-85
2022/11/02 09:22:02;;;;;;;7.63;1.57;;;26.70;60.10;;;;;;4975378;28;20449;-84
2022/11/02 09:24:29;;;;;;;2.13;1.03;;;26.90;60.10;;;;;;4975445;28;20456;-84
2022/11/02 09:26:56;;;;;;;3.40;1.30;;;27.00;59.80;;;;;;4975103;28;20967;-84
2022/11/02 09:29:22;;;;;;;4.93;1.00;;;27.30;59.90;;;;;;4975401;28;20449;-84
2022/11/02 09:31:49;;;;;;;2.30;1.63;;;27.60;59.70;;;;;;4975349;28;20452;-85
2022/11/02 09:34:16;;;;;;;2.67;1.43;;;28.00;59.30;;;;;;4975232;28;20578;-84
2022/11/02 09:36:43;;;;;;;3.17;1.20;;;28.20;58.80;;;;;;4975358;28;20453;-84
2022/11/02 09:39:11;;;;;;;2.70;1.13;;;28.40;58.50;;;;;;4975224;28;20457;-84
2022/11/02 09:41:45;;;;;;;2.73;1.27;;;28.70;58.40;;;;;;4974565;28;20447;-84
2022/11/02 09:44:18;;;;;;;2.00;1.10;;;28.90;58.20;;;;;;4975267;28;20440;-84
2022/11/02 09:46:46;;;;;;;1.70;1.17;;;29.00;58.00;;;;;;4975246;28;20446;-84
2022/11/02 09:49:16;;;;;;;3.27;1.37;;;29.10;57.90;;;;;;4975039;28;20451;-85
2022/11/02 09:51:46;;;;;;;1.73;1.00;;;29.10;57.90;;;;;;4975139;28;20450;-86
2022/11/02 09:54:19;;;;;;;1.63;1.17;;;29.10;57.90;;;;;;4975143;28;20828;-85
2022/11/02 09:56:47;;;;;;;1.90;1.67;;;29.00;57.90;;;;;;4974877;28;20444;-84
2022/11/02 09:59:16;;;;;;;2.50;1.30;;;28.90;57.80;;;;;;4975107;28;20648;-85
2022/11/02 10:01:56;;;;;;;1.97;1.10;;;28.90;58.20;;;;;;4974998;28;20452;-84
2022/11/02 10:04:51;;;;;;;3.20;1.43;;;29.10;58.10;;;;;;4974943;28;20448;-85
2022/11/02 10:07:29;;;;;;;2.07;1.10;;;29.40;57.70;;;;;;4974961;28;20444;-85
2022/11/02 10:10:03;;;;;;;2.83;1.40;;;29.30;57.70;;;;;;4974988;28;20930;-84
2022/11/02 10:12:39;;;;;;;3.20;1.33;;;29.20;57.90;;;;;;4974953;28;20440;-84
2022/11/02 10:15:13;;;;;;;1.73;1.20;;;29.10;58.00;;;;;;4975703;28;20484;-85
2022/11/02 10:17:41;;;;;;;3.10;0.83;;;28.90;58.30;;;;;;4974476;28;20489;-84
2022/11/02 10:20:26;;;;;;;3.03;1.10;;;28.70;58.50;;;;;;4974512;28;20451;-85
2022/11/02 10:22:55;;;;;;;2.60;1.00;;;28.60;58.90;;;;;;4974817;28;20804;-85
2022/11/02 10:25:24;;;;;;;2.00;1.00;;;28.40;59.20;;;;;;4974614;28;20463;-85
2022/11/02 10:28:00;;;;;;;2.20;1.57;;;28.30;59.30;;;;;;4974435;28;20447;-85
2022/11/02 10:30:28;;;;;;;3.10;1.53;;;28.20;60.20;;;;;;4974925;28;20444;-87
2022/11/02 10:32:56;;;;;;;2.27;1.30;;;28.10;59.70;;;;;;4974732;28;20449;-84
2022/11/02 10:35:32;;;;;;;3.17;1.27;;;28.00;59.90;;;;;;4974604;28;20497;-84
2022/11/02 10:38:14;;;;;;;1.77;1.37;;;27.80;60.00;;;;;;4974701;28;20806;-84
2022/11/02 10:40:58;;;;;;;1.50;1.23;;;27.80;60.20;;;;;;4974656;28;20439;-84
2022/11/02 10:43:36;;;;;;;1.20;1.00;;;27.70;60.40;;;;;;4974683;28;20435;-84
2022/11/02 10:50:06;;;;;;;2.13;0.90;;;27.60;60.70;;;;;;4974382;28;20460;-86
2022/11/02 10:52:36;;;;;;;5.03;1.00;;;27.40;59.60;;;;;;4929225;28;20460;-85
2022/11/02 10:55:03;;;;;;;3.83;1.07;;;27.30;59.10;;;;;;4977790;28;20992;-85
2022/11/02 10:57:33;;;;;;;2.70;1.20;;;27.30;60.10;;;;;;4978132;28;20451;-85
2022/11/02 11:00:22;;;;;;;1.20;0.90;;;27.50;61.00;;;;;;4978083;28;20442;-85
2022/11/02 11:03:06;;;;;;;2.00;1.00;;;27.40;61.00;;;;;;4978119;28;20451;-85
2022/11/02 11:05:34;;;;;;;1.90;1.00;;;27.30;61.10;;;;;;4978029;28;20449;-85
2022/11/02 11:08:02;;;;;;;2.57;1.13;;;27.20;61.30;;;;;;4978051;28;20453;-85
2022/11/02 11:10:30;;;;;;;2.07;0.80;;;27.50;61.50;;;;;;4977601;28;20940;-85
2022/11/02 11:12:58;;;;;;;2.27;1.00;;;27.20;61.40;;;;;;4977896;28;20464;-86
2022/11/02 11:15:29;;;;;;;1.20;0.90;;;27.20;61.40;;;;;;4977860;28;20485;-85
2022/11/02 11:17:56;;;;;;;2.93;1.60;;;27.20;61.50;;;;;;4977492;28;20808;-85
2022/11/02 11:20:34;;;;;;;1.90;0.97;;;27.20;61.60;;;;;;4977760;28;20450;-85
2022/11/02 11:23:17;;;;;;;1.40;0.90;;;27.20;61.80;;;;;;4977731;28;20439;-85
2022/11/02 11:25:54;;;;;;;2.33;1.10;;;27.10;61.80;;;;;;4977673;28;20444;-85
2022/11/02 11:28:25;;;;;;;2.00;1.30;;;27.10;61.90;;;;;;4977687;28;20504;-87
2022/11/02 11:31:07;;;;;;;4.50;1.67;;;27.00;59.90;;;;;;4977248;28;20458;-86
2022/11/02 11:33:42;;;;;;;2.10;1.83;;;26.90;57.20;;;;;;4977301;28;20958;-85
2022/11/02 11:36:10;;;;;;;3.13;1.83;;;26.80;55.80;;;;;;4977192;28;20457;-86
2022/11/02 11:38:46;;;;;;;5.37;1.43;;;27.10;57.40;;;;;;4977088;28;20449;-86
2022/11/02 11:41:13;;;;;;;4.23;1.47;;;26.90;58.40;;;;;;4977890;28;20441;-85
2022/11/02 11:43:42;;;;;;;2.73;1.60;;;26.90;60.00;;;;;;4977354;28;20458;-86
2022/11/02 11:46:13;;;;;;;2.53;1.40;;;26.90;60.70;;;;;;4977013;28;20838;-86
2022/11/02 11:48:42;;;;;;;1.30;1.07;;;26.90;61.00;;;;;;4976948;28;20448;-85
2022/11/02 11:51:28;;;;;;;1.83;1.00;;;26.90;61.20;;;;;;4976439;28;20447;-85
2022/11/02 11:54:17;;;;;;;3.60;1.53;;;26.90;61.20;;;;;;4976712;28;20444;-85
2022/11/02 11:56:44;;;;;;;2.40;1.10;;;26.90;61.20;;;;;;4976815;28;20509;-85
2022/11/02 11:59:21;;;;;;;3.00;1.53;;;26.90;61.30;;;;;;4976766;28;20449;-86
2022/11/02 12:01:48;;;;;;;5.47;1.23;;;26.90;61.30;;;;;;4976964;28;20504;-85
2022/11/02 12:04:27;;;;;;;3.40;1.50;;;26.90;61.40;;;;;;4976411;28;20449;-85
2022/11/02 12:07:07;;;;;;;2.63;1.40;;;26.90;61.40;;;;;;4976867;28;20445;-85
2022/11/02 12:09:40;;;;;;;7.43;1.40;;;26.90;61.40;;;;;;4976875;28;20442;-85
2022/11/02 12:12:16;;;;;;;3.77;1.17;;;26.90;61.60;;;;;;4976971;28;20452;-86
2022/11/02 12:14:58;;;;;;;1.73;1.13;;;26.90;61.60;;;;;;4976770;28;20476;-86
2022/11/02 12:17:36;;;;;;;2.40;1.10;;;26.90;61.70;;;;;;4976439;28;20477;-85
2022/11/02 12:20:19;;;;;;;3.37;1.30;;;26.90;61.80;;;;;;4976789;28;20441;-86
2022/11/02 12:22:54;;;;;;;4.43;1.33;;;27.00;61.70;;;;;;4976340;28;20434;-85
2022/11/02 12:25:35;;;;;;;2.23;1.20;;;27.00;61.80;;;;;;4976663;28;20440;-85
2022/11/02 12:28:19;;;;;;;1.87;0.97;;;27.00;61.70;;;;;;4976170;28;20922;-86
2022/11/02 12:30:59;;;;;;;4.33;1.33;;;27.00;61.70;;;;;;4976233;28;20433;-86
2022/11/02 12:33:52;;;;;;;1.80;1.27;;;27.00;61.70;;;;;;4977029;28;20773;-85
2022/11/02 12:36:31;;;;;;;1.90;1.60;;;27.00;61.70;;;;;;4976310;28;20451;-85
2022/11/02 12:39:07;;;;;;;3.57;1.23;;;27.10;61.80;;;;;;4976387;28;20450;-86
2022/11/02 12:41:55;;;;;;;1.97;1.10;;;27.10;61.80;;;;;;4976631;28;20430;-85
2022/11/02 12:44:40;;;;;;;2.47;1.07;;;27.10;61.90;;;;;;4975876;28;20947;-85
2022/11/02 12:47:21;;;;;;;1.63;0.90;;;27.10;62.00;;;;;;4976325;28;20442;-89
2022/11/02 12:49:54;;;;;;;3.73;1.30;;;27.10;62.00;;;;;;4975572;28;21009;-85
2022/11/02 12:52:37;;;;;;;4.40;1.63;;;27.10;62.00;;;;;;4975617;28;20438;-85
2022/11/02 12:55:12;;;;;;;1.30;1.07;;;27.20;62.20;;;;;;4975943;28;20482;-85
2022/11/02 12:57:39;;;;;;;2.63;1.03;;;27.10;62.10;;;;;;4975925;28;20496;-86
2022/11/02 13:00:15;;;;;;;1.27;0.90;;;27.00;62.10;;;;;;4975919;28;20525;-85
2022/11/02 13:02:55;;;;;;;2.70;1.20;;;27.10;62.20;;;;;;4975574;28;20437;-85
2022/11/02 13:05:26;;;;;;;2.20;1.17;;;27.00;62.10;;;;;;4976368;28;20831;-85
2022/11/02 13:08:01;;;;;;;2.80;1.20;;;27.00;62.20;;;;;;4975818;28;20439;-85
2022/11/02 13:10:33;;;;;;;2.90;1.10;;;27.00;62.30;;;;;;4975455;28;20439;-86
2022/11/02 13:13:03;;;;;;;3.50;1.20;;;27.00;62.30;;;;;;4975392;28;20827;-86
2022/11/02 13:15:34;;;;;;;2.40;0.97;;;27.00;62.30;;;;;;4975638;28;20493;-86
2022/11/02 13:18:06;;;;;;;2.40;1.00;;;27.00;62.30;;;;;;4974945;28;20477;-85
2022/11/02 13:20:39;;;;;;;2.90;1.37;;;27.00;62.30;;;;;;4975319;28;20440;-85
2022/11/02 13:23:17;;;;;;;1.20;0.90;;;26.90;62.30;;;;;;4975213;28;20442;-85
2022/11/02 13:25:50;;;;;;;2.13;1.20;;;27.00;62.30;;;;;;4975171;28;20445;-86
2022/11/02 13:28:24;;;;;;;1.27;0.93;;;27.00;62.30;;;;;;4975435;28;20528;-85
2022/11/02 13:30:51;;;;;;;1.67;1.40;;;26.90;62.40;;;;;;4975375;28;20437;-85
2022/11/02 13:33:26;;;;;;;1.40;0.97;;;26.90;62.40;;;;;;4975032;28;20464;-85
2022/11/02 13:35:53;;;;;;;3.50;1.27;;;26.90;62.40;;;;;;4975241;28;20819;-85